Time;durP1;ratioP1;P1;durP2;ratioP2;P2;SDS_P1;SDS_P2;PMS_P1;PMS_P2;Temp;Humidity;BMP_temperature;BMP_pressure;BME280_temperature;BME280_humidity;BME280_pressure;Samples;Min_cycle;Max_cycle;Signal;HPM_P1;HPM_P2
2022/08/06 00:01:00;;;;;;;;;;;;;;;22.29;100.00;100191.72;3051772;19;1854;-55
2022/08/06 00:02:04;;;;;;;;;;;;;;;22.28;100.00;100211.78;3052405;19;972;-54
2022/08/06 00:03:07;;;;;;;;;;;;;;;22.28;100.00;100211.78;3046853;19;924;-55
2022/08/06 00:04:11;;;;;;;;;;;;;;;22.26;100.00;100198.38;3044203;19;1040;-54
2022/08/06 00:05:13;;;;;;;;;;;;;;;22.26;100.00;100173.91;3043776;19;960;-52
2022/08/06 00:06:26;;;;;;;;;;;;;;;22.24;100.00;100159.63;3045142;19;1392;-52
2022/08/06 00:07:30;;;;;;;;;;;;;;;22.23;100.00;100178.84;3046890;19;1351;-55
2022/08/06 00:08:48;;;;;;;;;;;;;;;22.20;100.00;100195.53;3047058;19;949;-53
2022/08/06 00:09:53;;;;;;;;;;;;;;;22.15;100.00;100201.47;3047669;19;1299;-55
2022/08/06 00:11:04;;;;;;;;;;;;;;;22.14;100.00;100199.78;3051659;19;966;-53
2022/08/06 00:12:06;;;;;;;;;;;;;;;22.14;100.00;100201.66;3051581;19;968;-56
2022/08/06 00:13:14;;;;;;;;;;;;;;;22.11;100.00;100166.66;3052534;19;1085;-55
2022/08/06 00:14:16;;;;;;;;;;;;;;;22.09;100.00;100163.28;3052148;19;956;-55
2022/08/06 00:15:21;;;;;;;;;;;;;;;22.07;100.00;100168.91;3052535;19;985;-57
2022/08/06 00:16:43;;;;;;;;;;;;;;;22.05;100.00;100175.53;3052758;19;1642;-55
2022/08/06 00:17:57;;;;;;;;;;;;;;;22.00;100.00;100203.22;3053257;19;971;-53
2022/08/06 00:19:01;;;;;;;;;;;;;;;21.99;100.00;100208.81;3052801;19;905;-51
2022/08/06 00:20:08;;;;;;;;;;;;;;;21.97;100.00;100202.72;3053042;19;1012;-54
2022/08/06 00:21:11;;;;;;;;;;;;;;;21.96;100.00;100182.00;3051967;19;1841;-51
2022/08/06 00:22:35;;;;;;;;;;;;;;;21.93;100.00;100175.88;3052088;19;928;-54
2022/08/06 00:23:37;;;;;;;;;;;;;;;21.91;100.00;100175.19;3052548;19;1014;-52
2022/08/06 00:24:59;;;;;;;;;;;;;;;21.89;100.00;100171.81;3051648;19;1059;-52
2022/08/06 00:26:01;;;;;;;;;;;;;;;21.87;100.00;100187.44;3044316;19;927;-53
2022/08/06 00:27:06;;;;;;;;;;;;;;;21.84;100.00;100171.50;3044359;19;940;-54
2022/08/06 00:28:16;;;;;;;;;;;;;;;21.81;100.00;100171.84;3044197;19;1377;-54
2022/08/06 00:29:21;;;;;;;;;;;;;;;21.79;100.00;100164.88;3046454;19;965;-52
2022/08/06 00:30:33;;;;;;;;;;;;;;;21.76;100.00;100154.38;3050357;19;891;-52
2022/08/06 00:31:38;;;;;;;;;;;;;;;21.72;100.00;100162.03;3049954;19;971;-55
2022/08/06 00:32:45;;;;;;;;;;;;;;;21.67;100.00;100158.97;3053027;19;1031;-53
2022/08/06 00:33:55;;;;;;;;;;;;;;;21.55;100.00;100139.50;3054975;19;917;-54
2022/08/06 00:34:58;;;;;;;;;;;;;;;21.60;100.00;100152.56;3054636;19;1012;-53
2022/08/06 00:36:03;;;;;;;;;;;;;;;21.58;100.00;100143.72;3056104;19;988;-51
2022/08/06 00:37:05;;;;;;;;;;;;;;;21.55;100.00;100146.78;3055475;19;1168;-51
2022/08/06 00:38:22;;;;;;;;;;;;;;;21.51;100.00;100148.16;3055800;19;941;-52
2022/08/06 00:39:25;;;;;;;;;;;;;;;21.49;100.00;100147.50;3055344;19;888;-56
2022/08/06 00:40:32;;;;;;;;;;;;;;;21.47;100.00;100149.53;3055553;19;1043;-54
2022/08/06 00:41:50;;;;;;;;;;;;;;;21.43;100.00;100142.75;3055578;19;1015;-55
2022/08/06 00:42:56;;;;;;;;;;;;;;;21.43;100.00;100145.47;3055288;19;911;-55
2022/08/06 00:43:58;;;;;;;;;;;;;;;21.40;100.00;100140.38;3053986;19;1031;-52
2022/08/06 00:45:07;;;;;;;;;;;;;;;21.37;100.00;100138.03;3054425;19;967;-54
2022/08/06 00:46:24;;;;;;;;;;;;;;;21.35;100.00;100148.19;3055042;19;938;-54
2022/08/06 00:47:29;;;;;;;;;;;;;;;21.35;100.00;100150.91;3054178;19;888;-52
2022/08/06 00:48:51;;;;;;;;;;;;;;;21.31;100.00;100141.41;3046412;19;992;-53
2022/08/06 00:49:59;;;;;;;;;;;;;;;21.29;100.00;100138.00;3046550;19;1088;-55
2022/08/06 00:51:03;;;;;;;;;;;;;;;21.28;100.00;100142.59;3048377;19;908;-54
2022/08/06 00:52:15;;;;;;;;;;;;;;;21.28;100.00;100147.16;3049982;19;1678;-51
2022/08/06 00:53:20;;;;;;;;;;;;;;;21.27;100.00;100143.59;3049770;19;922;-53
2022/08/06 00:54:25;;;;;;;;;;;;;;;21.27;100.00;100143.59;3048356;19;1156;-54
2022/08/06 00:55:36;;;;;;;;;;;;;;;21.28;100.00;100149.88;3054311;19;943;-53
2022/08/06 00:57:00;;;;;;;;;;;;;;;21.25;100.00;100145.66;3055038;19;1011;-54
2022/08/06 00:58:05;;;;;;;;;;;;;;;21.28;100.00;100133.59;3055091;19;943;-55
2022/08/06 00:59:10;;;;;;;;;;;;;;;21.28;100.00;100137.16;3055833;19;911;-54
2022/08/06 01:00:18;;;;;;;;;;;;;;;21.29;100.00;100138.84;3054867;19;898;-55
2022/08/06 01:01:34;;;;;;;;;;;;;;;21.30;100.00;100128.84;3055206;19;1868;-55
2022/08/06 01:02:51;;;;;;;;;;;;;;;21.30;100.00;100126.97;3054204;19;992;-52
2022/08/06 01:03:56;;;;;;;;;;;;;;;21.31;100.00;100130.53;3054817;19;931;-54
2022/08/06 01:04:58;;;;;;;;;;;;;;;21.31;100.00;100125.13;3055306;19;900;-51
2022/08/06 01:06:10;;;;;;;;;;;;;;;21.31;100.00;100119.69;3055510;19;1137;-56
2022/08/06 01:07:34;;;;;;;;;;;;;;;21.30;100.00;100112.56;3055786;19;885;-54
2022/08/06 01:08:55;;;;;;;;;;;;;;;21.33;100.00;100128.50;3055089;19;908;-56
2022/08/06 01:09:58;;;;;;;;;;;;;;;21.34;100.00;100127.50;3053402;19;1046;-55
2022/08/06 01:11:03;;;;;;;;;;;;;;;21.32;100.00;100116.81;3047057;19;935;-55
2022/08/06 01:12:10;;;;;;;;;;;;;;;21.32;100.00;100122.22;3047402;19;1239;-55
2022/08/06 01:13:16;;;;;;;;;;;;;;;21.28;100.00;100130.88;3046548;19;912;-54
2022/08/06 01:14:40;;;;;;;;;;;;;;;21.30;100.00;100129.69;3049539;19;929;-54
2022/08/06 01:15:43;;;;;;;;;;;;;;;21.28;100.00;100128.16;3049680;19;1007;-55
2022/08/06 01:17:10;;;;;;;;;;;;;;;21.27;100.00;100121.91;3049297;19;1019;-53
2022/08/06 01:18:26;;;;;;;;;;;;;;;21.25;100.00;100125.81;3054375;19;938;-56
2022/08/06 01:19:36;;;;;;;;;;;;;;;21.25;100.00;100125.81;3054117;19;961;-52
2022/08/06 01:21:07;;;;;;;;;;;;;;;21.21;100.00;100114.44;3054849;19;928;-52
2022/08/06 01:22:40;;;;;;;;;;;;;;;21.20;100.00;100113.59;3053921;19;1032;-53
2022/08/06 01:24:01;;;;;;;;;;;;;;;21.19;100.00;100111.06;3054231;19;977;-53
2022/08/06 01:25:09;;;;;;;;;;;;;;;21.18;100.00;100109.34;3054853;19;912;-56
2022/08/06 01:26:21;;;;;;;;;;;;;;;21.18;100.00;100114.75;3055174;19;1235;-54
2022/08/06 01:27:34;;;;;;;;;;;;;;;21.17;100.00;100107.63;3053273;19;951;-51
2022/08/06 01:28:47;;;;;;;;;;;;;;;21.16;100.00;100123.06;3054060;19;897;-52
2022/08/06 01:29:56;;;;;;;;;;;;;;;21.15;100.00;100118.66;3054017;19;1059;-53
2022/08/06 01:31:11;;;;;;;;;;;;;;;21.13;100.00;100123.41;3053776;19;1297;-53
2022/08/06 01:32:17;;;;;;;;;;;;;;;21.13;100.00;100117.16;3053981;19;1025;-53
2022/08/06 01:33:26;;;;;;;;;;;;;;;21.11;100.00;100119.19;3045659;19;934;-54
2022/08/06 01:34:36;;;;;;;;;;;;;;;21.10;100.00;100115.63;3045777;19;913;-54
2022/08/06 01:35:39;;;;;;;;;;;;;;;21.08;100.00;100125.81;3045207;19;1452;-56
2022/08/06 01:36:54;;;;;;;;;;;;;;;21.07;100.00;100113.25;3048028;19;1176;-51
2022/08/06 01:38:00;;;;;;;;;;;;;;;21.05;100.00;100111.72;3049206;19;1055;-52
2022/08/06 01:39:05;;;;;;;;;;;;;;;21.03;100.00;100108.31;3048600;19;994;-56
2022/08/06 01:40:15;;;;;;;;;;;;;;;21.03;100.00;100116.47;3050221;19;1160;-52
2022/08/06 01:41:38;;;;;;;;;;;;;;;20.99;100.00;100113.25;3053326;19;1047;-54
2022/08/06 01:43:01;;;;;;;;;;;;;;;20.98;100.00;100113.44;3053761;19;980;-52
2022/08/06 01:44:21;;;;;;;;;;;;;;;20.98;100.00;100118.84;3053751;19;1012;-52
2022/08/06 01:45:26;;;;;;;;;;;;;;;20.97;100.00;100112.56;3053698;19;943;-53
2022/08/06 01:46:53;;;;;;;;;;;;;;;20.96;100.00;100119.03;3054083;19;1087;-52
2022/08/06 01:47:59;;;;;;;;;;;;;;;20.90;100.00;100107.97;3054072;19;1352;-56
2022/08/06 01:49:02;;;;;;;;;;;;;;;20.94;100.00;100118.34;3053655;19;996;-52
2022/08/06 01:50:28;;;;;;;;;;;;;;;20.95;100.00;100120.03;3053710;19;944;-53
2022/08/06 01:51:31;;;;;;;;;;;;;;;20.94;100.00;100118.34;3053856;19;945;-57
2022/08/06 01:52:56;;;;;;;;;;;;;;;20.92;100.00;100112.22;3052471;19;897;-51
2022/08/06 01:54:02;;;;;;;;;;;;;;;20.92;100.00;100120.38;3052406;19;979;-55
2022/08/06 01:55:12;;;;;;;;;;;;;;;20.92;100.00;100127.66;3049397;19;972;-53
2022/08/06 01:56:16;;;;;;;;;;;;;;;20.88;100.00;100119.03;3044444;19;1036;-52
2022/08/06 01:57:29;;;;;;;;;;;;;;;20.84;100.00;100123.09;3045267;19;968;-54
2022/08/06 01:58:54;;;;;;;;;;;;;;;20.66;100.00;100112.38;3047306;19;1286;-56
2022/08/06 01:59:56;;;;;;;;;;;;;;;20.69;100.00;100124.78;3047757;19;1175;-55
2022/08/06 02:01:01;;;;;;;;;;;;;;;20.72;100.00;100135.28;3047343;19;1000;-53
2022/08/06 02:02:05;;;;;;;;;;;;;;;20.69;100.00;100141.88;3047657;19;1858;-53
2022/08/06 02:03:13;;;;;;;;;;;;;;;20.65;100.00;100134.28;3052967;19;1629;-52
2022/08/06 02:04:18;;;;;;;;;;;;;;;20.61;100.00;100135.63;3053482;19;948;-52
2022/08/06 02:05:25;;;;;;;;;;;;;;;20.60;100.00;100125.78;3053497;19;1303;-53
2022/08/06 02:06:35;;;;;;;;;;;;;;;20.57;100.00;100126.13;3053912;19;936;-54
2022/08/06 02:07:41;;;;;;;;;;;;;;;20.57;100.00;100136.97;3052996;19;978;-55
2022/08/06 02:09:07;;;;;;;;;;;;;;;20.56;100.00;100129.84;3053096;19;949;-52
2022/08/06 02:10:23;;;;;;;;;;;;;;;20.56;100.00;100140.69;3054676;19;937;-54
2022/08/06 02:11:29;;;;;;;;;;;;;;;20.56;100.00;100141.53;3053885;19;976;-53
2022/08/06 02:12:53;;;;;;;;;;;;;;;20.58;100.00;100138.66;3054698;19;923;-54
2022/08/06 02:14:06;;;;;;;;;;;;;;;20.58;100.00;100123.25;3053137;19;1497;-54
2022/08/06 02:15:09;;;;;;;;;;;;;;;20.61;100.00;100125.63;3053367;19;948;-56
2022/08/06 02:16:14;;;;;;;;;;;;;;;20.64;100.00;100138.00;3053066;19;1666;-56
2022/08/06 02:17:16;;;;;;;;;;;;;;;20.65;100.00;100139.69;3052882;19;970;-52
2022/08/06 02:18:31;;;;;;;;;;;;;;;20.68;100.00;100139.34;3045874;19;927;-51
2022/08/06 02:19:38;;;;;;;;;;;;;;;20.70;100.00;100130.03;3045761;19;927;-54
2022/08/06 02:21:00;;;;;;;;;;;;;;;20.73;100.00;100139.69;3045973;19;906;-54
2022/08/06 02:22:22;;;;;;;;;;;;;;;20.77;100.00;100138.34;3047586;19;1837;-57
2022/08/06 02:23:27;;;;;;;;;;;;;;;20.80;100.00;100132.56;3047674;19;987;-51
2022/08/06 02:24:37;;;;;;;;;;;;;;;20.81;100.00;100142.41;3048387;19;932;-54
2022/08/06 02:25:39;;;;;;;;;;;;;;;20.83;100.00;100127.66;3052477;19;1023;-53
2022/08/06 02:26:44;;;;;;;;;;;;;;;20.85;100.00;100132.94;3053218;19;984;-50
2022/08/06 02:27:47;;;;;;;;;;;;;;;20.87;100.00;100127.34;3052876;19;945;-55
2022/08/06 02:29:03;;;;;;;;;;;;;;;20.89;100.00;100134.25;3053604;19;948;-56
2022/08/06 02:30:06;;;;;;;;;;;;;;;20.88;100.00;100135.31;3053136;19;940;-55
2022/08/06 02:31:10;;;;;;;;;;;;;;;20.89;100.00;100131.56;3053189;19;1015;-49
2022/08/06 02:32:16;;;;;;;;;;;;;;;20.89;100.00;100139.69;3053316;19;924;-55
2022/08/06 02:33:22;;;;;;;;;;;;;;;20.89;100.00;100142.41;3053377;19;897;-52
2022/08/06 02:34:43;;;;;;;;;;;;;;;20.87;100.00;100141.75;3052736;19;1007;-56
2022/08/06 02:35:52;;;;;;;;;;;;;;;20.86;100.00;100145.47;3053195;19;936;-55
2022/08/06 02:37:22;;;;;;;;;;;;;;;20.84;100.00;100142.06;3053126;19;956;-53
2022/08/06 02:38:47;;;;;;;;;;;;;;;20.80;100.00;100146.13;3053463;19;996;-53
2022/08/06 02:39:57;;;;;;;;;;;;;;;20.78;100.00;100145.44;3050248;19;1023;-53
2022/08/06 02:41:05;;;;;;;;;;;;;;;20.75;100.00;100134.97;3044234;19;976;-55
2022/08/06 02:42:28;;;;;;;;;;;;;;;20.74;100.00;100149.53;3044392;19;897;-55
2022/08/06 02:43:37;;;;;;;;;;;;;;;20.72;100.00;100146.13;3046208;19;1240;-53
2022/08/06 02:44:42;;;;;;;;;;;;;;;20.69;100.00;100149.19;3046783;19;1392;-53
2022/08/06 02:45:50;;;;;;;;;;;;;;;20.66;100.00;100144.94;3047853;19;1633;-54
2022/08/06 02:47:07;;;;;;;;;;;;;;;20.64;100.00;100148.84;3047353;19;1312;-53
2022/08/06 02:48:31;;;;;;;;;;;;;;;20.61;100.00;100144.59;3052542;19;905;-52
2022/08/06 02:49:36;;;;;;;;;;;;;;;20.60;100.00;100150.19;3052746;19;940;-51
2022/08/06 02:50:43;;;;;;;;;;;;;;;20.58;100.00;100154.94;3052560;19;980;-51
2022/08/06 02:51:49;;;;;;;;;;;;;;;20.57;100.00;100158.66;3052931;19;912;-54
2022/08/06 02:53:16;;;;;;;;;;;;;;;20.53;100.00;100160.03;3051142;19;971;-53
2022/08/06 02:54:33;;;;;;;;;;;;;;;20.50;100.00;100163.91;3051874;19;1100;-55
2022/08/06 02:55:50;;;;;;;;;;;;;;;20.46;100.00;100163.38;3053104;19;1036;-56
2022/08/06 02:56:55;;;;;;;;;;;;;;;20.44;100.00;100157.28;3053182;19;960;-51
2022/08/06 02:57:59;;;;;;;;;;;;;;;20.42;100.00;100156.56;3052635;19;835;-54
2022/08/06 02:59:05;;;;;;;;;;;;;;;20.41;100.00;100154.88;3052388;19;1362;-54
2022/08/06 03:00:12;;;;;;;;;;;;;;;20.38;100.00;100160.66;3052697;19;963;-52
2022/08/06 03:01:16;;;;;;;;;;;;;;;20.36;100.00;100151.84;3052719;19;968;-55
2022/08/06 03:02:26;;;;;;;;;;;;;;;20.35;100.00;100168.22;3049133;19;1024;-51
2022/08/06 03:03:29;;;;;;;;;;;;;;;20.33;100.00;100165.69;3042902;19;1853;-51
2022/08/06 03:04:38;;;;;;;;;;;;;;;20.32;100.00;100161.28;3044162;19;927;-55
2022/08/06 03:05:49;;;;;;;;;;;;;;;20.32;100.00;100166.69;3044901;19;968;-53
2022/08/06 03:07:00;;;;;;;;;;;;;;;20.33;100.00;100173.81;3047234;19;1403;-56
2022/08/06 03:08:02;;;;;;;;;;;;;;;20.32;100.00;100166.69;3046861;19;936;-55
2022/08/06 03:09:08;;;;;;;;;;;;;;;20.31;100.00;100170.41;3047025;19;895;-54
2022/08/06 03:10:16;;;;;;;;;;;;;;;20.30;100.00;100178.69;3052365;19;930;-55
2022/08/06 03:11:29;;;;;;;;;;;;;;;20.28;100.00;100181.59;3052739;19;894;-53
2022/08/06 03:12:32;;;;;;;;;;;;;;;20.27;100.00;100182.63;3052849;19;949;-52
2022/08/06 03:13:37;;;;;;;;;;;;;;;20.25;100.00;100181.91;3052016;19;842;-54
2022/08/06 03:14:39;;;;;;;;;;;;;;;20.25;100.00;100170.22;3052764;19;1269;-54
2022/08/06 03:16:04;;;;;;;;;;;;;;;20.26;100.00;100177.34;3052709;19;965;-50
2022/08/06 03:17:24;;;;;;;;;;;;;;;20.23;100.00;100178.53;3052035;19;1007;-56
2022/08/06 03:18:32;;;;;;;;;;;;;;;20.23;100.00;100183.94;3053034;19;964;-54
2022/08/06 03:19:34;;;;;;;;;;;;;;;20.21;100.00;100185.97;3051430;19;959;-54
2022/08/06 03:20:59;;;;;;;;;;;;;;;20.22;100.00;100182.25;3051968;19;932;-56
2022/08/06 03:22:01;;;;;;;;;;;;;;;20.22;100.00;100187.66;3052151;19;920;-55
2022/08/06 03:23:08;;;;;;;;;;;;;;;20.23;100.00;100183.94;3052250;19;1845;-54
2022/08/06 03:24:10;;;;;;;;;;;;;;;20.25;100.00;100181.91;3052722;19;936;-55
2022/08/06 03:25:16;;;;;;;;;;;;;;;20.27;100.00;100193.44;3046551;19;967;-52
2022/08/06 03:26:22;;;;;;;;;;;;;;;20.31;100.00;100183.09;3044041;19;1012;-53
2022/08/06 03:27:26;;;;;;;;;;;;;;;20.34;100.00;100185.50;3043696;19;893;-55
2022/08/06 03:28:30;;;;;;;;;;;;;;;20.38;100.00;100182.34;3045342;19;1729;-51
2022/08/06 03:29:35;;;;;;;;;;;;;;;20.44;100.00;100191.66;3046064;19;999;-53
2022/08/06 03:30:37;;;;;;;;;;;;;;;20.49;100.00;100195.59;3046438;19;948;-51
2022/08/06 03:31:41;;;;;;;;;;;;;;;20.56;100.00;100203.03;3046187;19;866;-52
2022/08/06 03:33:00;;;;;;;;;;;;;;;20.61;100.00;100197.97;3051907;19;1019;-53
2022/08/06 03:34:24;;;;;;;;;;;;;;;20.66;100.00;100201.88;3052671;19;1103;-55
2022/08/06 03:35:26;;;;;;;;;;;;;;;20.71;100.00;100204.94;3052387;19;976;-51
2022/08/06 03:36:51;;;;;;;;;;;;;;;20.77;100.00;100203.44;3052086;19;1000;-54
2022/08/06 03:37:53;;;;;;;;;;;;;;;20.81;100.00;100210.22;3051916;19;880;-55
2022/08/06 03:39:06;;;;;;;;;;;;;;;20.74;100.00;100192.94;3052421;19;1222;-54
2022/08/06 03:40:10;;;;;;;;;;;;;;;20.92;100.00;100223.44;3052324;19;960;-54
2022/08/06 03:41:15;;;;;;;;;;;;;;;20.98;100.00;100213.81;3051978;19;916;-55
2022/08/06 03:42:19;;;;;;;;;;;;;;;21.07;100.00;100215.50;3052513;19;1018;-52
2022/08/06 03:43:23;;;;;;;;;;;;;;;21.18;100.00;100212.44;3052696;19;1838;-52
2022/08/06 03:44:29;;;;;;;;;;;;;;;21.32;100.00;100222.69;3053445;19;964;-53
2022/08/06 03:45:34;;;;;;;;;;;;;;;21.45;100.00;100220.28;3053168;19;928;-55
2022/08/06 03:47:01;;;;;;;;;;;;;;;21.61;100.00;100230.31;3051511;19;884;-55
2022/08/06 03:48:03;;;;;;;;;;;;;;;21.80;100.00;100229.91;3043498;19;1087;-54
2022/08/06 03:49:14;;;;;;;;;;;;;;;22.06;100.00;100237.03;3043123;19;968;-54
2022/08/06 03:50:34;;;;;;;;;;;;;;;22.34;100.00;100242.88;3044389;19;933;-52
2022/08/06 03:51:36;;;;;;;;;;;;;;;22.56;100.00;100248.38;3047645;19;1389;-56
2022/08/06 03:52:58;;;;;;;;;;;;;;;22.83;100.00;100254.34;3046489;19;1378;-55
2022/08/06 03:54:01;;;;;;;;;;;;;;;23.02;100.00;100253.91;3045729;19;1289;-55
2022/08/06 03:55:06;;;;;;;;;;;;;;;23.19;100.00;100250.03;3050960;19;1100;-55
2022/08/06 03:56:16;;;;;;;;;;;;;;;23.44;100.00;100268.91;3052421;19;865;-52
2022/08/06 03:57:27;;;;;;;;;;;;;;;23.61;100.00;100270.50;3051563;19;965;-54
2022/08/06 03:58:30;;;;;;;;;;;;;;;23.77;100.00;100286.72;3051820;19;860;-56
2022/08/06 03:59:34;;;;;;;;;;;;;;;23.92;100.00;100286.72;3051724;19;944;-53
2022/08/06 04:00:49;;;;;;;;;;;;;;;24.06;100.00;100292.19;3051918;19;1315;-52
2022/08/06 04:01:56;;;;;;;;;;;;;;;24.22;100.00;100295.78;3052300;19;898;-54
2022/08/06 04:03:04;;;;;;;;;;;;;;;24.36;100.00;100297.72;3052837;19;940;-53
2022/08/06 04:04:06;;;;;;;;;;;;;;;24.40;100.00;100302.59;3053307;19;1897;-51
2022/08/06 04:05:31;;;;;;;;;;;;;;;24.30;100.00;100307.47;3053111;19;936;-55
2022/08/06 04:06:33;;;;;;;;;;;;;;;24.23;100.00;100303.81;3053149;19;1007;-56
2022/08/06 04:07:37;;;;;;;;;;;;;;;24.17;100.00;100304.53;3053054;19;1588;-51
2022/08/06 04:08:59;;;;;;;;;;;;;;;24.17;100.00;100311.84;3053359;19;932;-55
2022/08/06 04:10:01;;;;;;;;;;;;;;;24.18;100.00;100313.53;3047093;19;893;-56
2022/08/06 04:11:06;;;;;;;;;;;;;;;24.33;100.00;100319.91;3044868;19;1028;-51
2022/08/06 04:12:28;;;;;;;;;;;;;;;24.75;100.00;100314.59;3044358;19;972;-52
2022/08/06 04:13:52;;;;;;;;;;;;;;;25.07;100.00;100323.44;3048158;19;979;-55
2022/08/06 04:15:07;;;;;;;;;;;;;;;25.31;100.00;100334.00;3048495;19;1118;-56
2022/08/06 04:16:13;;;;;;;;;;;;;;;25.40;100.00;100330.09;3047778;19;1437;-53
2022/08/06 04:17:15;;;;;;;;;;;;;;;25.39;100.00;100342.06;3052862;19;950;-52
2022/08/06 04:18:20;;;;;;;;;;;;;;;25.33;100.00;100340.13;3054564;19;931;-54
2022/08/06 04:19:23;;;;;;;;;;;;;;;25.48;100.00;100351.81;3053535;19;1001;-53
2022/08/06 04:20:40;;;;;;;;;;;;;;;25.69;100.00;100344.72;3055256;19;893;-54
2022/08/06 04:21:47;;;;;;;;;;;;;;;25.80;100.00;100353.25;3054701;19;971;-52
2022/08/06 04:23:09;;;;;;;;;;;;;;;25.61;100.00;100353.03;3055779;19;862;-54
2022/08/06 04:24:14;;;;;;;;;;;;;;;25.36;100.00;100352.53;3053699;19;1853;-53
2022/08/06 04:25:16;;;;;;;;;;;;;;;25.39;100.00;100355.72;3054564;19;892;-53
2022/08/06 04:26:22;;;;;;;;;;;;;;;25.63;100.00;100361.88;3055785;19;1218;-53
2022/08/06 04:27:25;;;;;;;;;;;;;;;25.59;100.00;100369.63;3056220;19;888;-55
2022/08/06 04:28:33;;;;;;;;;;;;;;;25.31;100.00;100364.06;3055294;19;952;-50
2022/08/06 04:29:44;;;;;;;;;;;;;;;25.10;100.00;100364.88;3054706;19;1456;-54
2022/08/06 04:30:59;;;;;;;;;;;;;;;24.85;100.00;100373.53;3054658;19;923;-54
2022/08/06 04:32:04;;;;;;;;;;;;;;;24.65;100.00;100363.16;3052540;19;922;-53
2022/08/06 04:33:21;;;;;;;;;;;;;;;24.54;100.00;100366.38;3046353;19;1000;-54
2022/08/06 04:34:39;;;;;;;;;;;;;;;24.35;100.00;100361.47;3045748;19;1713;-54
2022/08/06 04:36:05;;;;;;;;;;;;;;;24.14;100.00;100373.09;3049003;19;929;-53
2022/08/06 04:37:24;;;;;;;;;;;;;;;23.90;100.00;100367.84;3049364;19;1299;-52
2022/08/06 04:38:34;;;;;;;;;;;;;;;23.82;100.00;100363.31;3050262;19;884;-52
2022/08/06 04:39:40;;;;;;;;;;;;;;;23.67;100.00;100363.25;3051317;19;1059;-52
2022/08/06 04:40:53;;;;;;;;;;;;;;;23.54;100.00;100360.31;3054664;19;946;-51
2022/08/06 04:41:55;;;;;;;;;;;;;;;23.43;100.00;100366.09;3055725;19;896;-52
2022/08/06 04:43:09;;;;;;;;;;;;;;;23.32;100.00;100359.19;3054324;19;994;-54
2022/08/06 04:44:11;;;;;;;;;;;;;;;23.24;100.00;100361.13;3054289;19;1846;-53
2022/08/06 04:45:17;;;;;;;;;;;;;;;23.15;100.00;100360.34;3055188;19;908;-54
2022/08/06 04:46:39;;;;;;;;;;;;;;;23.08;100.00;100356.63;3055043;19;1143;-53
2022/08/06 04:47:43;;;;;;;;;;;;;;;23.07;100.00;100365.81;3053900;19;1799;-57
2022/08/06 04:48:48;;;;;;;;;;;;;;;23.06;100.00;100363.28;3054847;19;1015;-52
2022/08/06 04:50:00;;;;;;;;;;;;;;;23.03;100.00;100359.06;3055726;19;1316;-54
2022/08/06 04:51:11;;;;;;;;;;;;;;;23.07;100.00;100362.25;3054984;19;1333;-52
2022/08/06 04:52:35;;;;;;;;;;;;;;;23.07;100.00;100360.38;3055500;19;964;-55
2022/08/06 04:53:53;;;;;;;;;;;;;;;23.06;100.00;100372.31;3054924;19;1108;-55
2022/08/06 04:54:58;;;;;;;;;;;;;;;23.05;100.00;100361.59;3047963;19;1075;-50
2022/08/06 04:56:02;;;;;;;;;;;;;;;23.02;100.00;100362.78;3045621;19;849;-52
2022/08/06 04:57:05;;;;;;;;;;;;;;;22.92;100.00;100367.59;3045974;19;1007;-56
2022/08/06 04:58:25;;;;;;;;;;;;;;;22.96;100.00;100363.50;3048845;19;897;-51
2022/08/06 04:59:33;;;;;;;;;;;;;;;22.98;100.00;100362.28;3049611;19;904;-55
2022/08/06 05:00:54;;;;;;;;;;;;;;;23.06;100.00;100368.75;3049610;19;1290;-51
2022/08/06 05:02:07;;;;;;;;;;;;;;;23.09;100.00;100361.03;3051812;19;1713;-52
2022/08/06 05:03:12;;;;;;;;;;;;;;;23.02;100.00;100368.25;3055519;19;1018;-53
2022/08/06 05:04:16;;;;;;;;;;;;;;;23.08;100.00;100359.34;3054177;19;1841;-56
2022/08/06 05:05:26;;;;;;;;;;;;;;;23.02;100.00;100365.50;3054580;19;901;-55
2022/08/06 05:06:40;;;;;;;;;;;;;;;23.12;100.00;100360.69;3055112;19;925;-50
2022/08/06 05:07:50;;;;;;;;;;;;;;;23.15;100.00;100379.41;3054803;19;881;-52
2022/08/06 05:09:03;;;;;;;;;;;;;;;23.13;100.00;100377.88;3054522;19;904;-54
2022/08/06 05:10:14;;;;;;;;;;;;;;;23.14;100.00;100377.69;3053706;19;1035;-53
2022/08/06 05:11:17;;;;;;;;;;;;;;;23.19;100.00;100374.44;3055096;19;957;-57
2022/08/06 05:12:30;;;;;;;;;;;;;;;23.17;100.00;100377.34;3053734;19;1235;-52
2022/08/06 05:13:35;;;;;;;;;;;;;;;23.25;100.00;100373.72;3054800;19;928;-52
2022/08/06 05:14:48;;;;;;;;;;;;;;;23.29;100.00;100381.38;3054512;19;1033;-54
2022/08/06 05:15:51;;;;;;;;;;;;;;;23.35;100.00;100386.09;3052391;19;986;-57
2022/08/06 05:16:58;;;;;;;;;;;;;;;23.39;100.00;100392.03;3051919;19;996;-53
2022/08/06 05:18:18;;;;;;;;;;;;;;;23.40;100.00;100391.00;3046518;19;861;-55
2022/08/06 05:19:47;;;;;;;;;;;;;;;23.40;100.00;100407.34;3045852;19;988;-52
2022/08/06 05:20:49;;;;;;;;;;;;;;;23.41;100.00;100408.19;3047777;19;829;-55
2022/08/06 05:21:54;;;;;;;;;;;;;;;23.39;100.00;100407.53;3048485;19;1319;-54
2022/08/06 05:23:17;;;;;;;;;;;;;;;23.38;100.00;100416.72;3048022;19;1345;-51
2022/08/06 05:24:21;;;;;;;;;;;;;;;23.31;100.00;100422.88;3049308;19;949;-52
2022/08/06 05:25:42;;;;;;;;;;;;;;;23.30;100.00;100436.69;3054648;19;940;-56
2022/08/06 05:26:55;;;;;;;;;;;;;;;23.26;100.00;100430.75;3053263;19;867;-56
2022/08/06 05:27:59;;;;;;;;;;;;;;;23.09;100.00;100434.53;3053781;19;1635;-52
2022/08/06 05:29:12;;;;;;;;;;;;;;;23.15;100.00;100441.16;3054331;19;810;-53
2022/08/06 05:30:18;;;;;;;;;;;;;;;23.12;100.00;100449.69;3054429;19;873;-52
2022/08/06 05:31:46;;;;;;;;;;;;;;;23.08;100.00;100443.72;3054794;19;984;-55
2022/08/06 05:32:53;;;;;;;;;;;;;;;22.98;100.00;100459.44;3054688;19;1111;-53
2022/08/06 05:33:57;;;;;;;;;;;;;;;22.94;100.00;100452.66;3054766;19;1041;-53
2022/08/06 05:35:02;;;;;;;;;;;;;;;22.91;100.00;100461.16;3053977;19;1022;-53
2022/08/06 05:36:12;;;;;;;;;;;;;;;22.78;100.00;100455.41;3054243;19;870;-54
2022/08/06 05:37:20;;;;;;;;;;;;;;;22.79;100.00;100459.84;3053938;19;904;-54
2022/08/06 05:38:45;;;;;;;;;;;;;;;22.68;100.00;100461.03;3054861;19;972;-54
2022/08/06 05:40:02;;;;;;;;;;;;;;;22.66;100.00;100463.06;3047535;19;869;-52
2022/08/06 05:41:12;;;;;;;;;;;;;;;22.61;100.00;100458.13;3045585;19;909;-53
2022/08/06 05:42:17;;;;;;;;;;;;;;;22.62;100.00;100465.28;3045948;19;976;-53
2022/08/06 05:43:26;;;;;;;;;;;;;;;22.67;100.00;100469.34;3048992;19;1011;-55
2022/08/06 05:44:51;;;;;;;;;;;;;;;22.60;100.00;100456.44;3048692;19;1852;-55
2022/08/06 05:45:55;;;;;;;;;;;;;;;22.48;100.00;100457.81;3048564;19;988;-53
2022/08/06 05:47:04;;;;;;;;;;;;;;;22.40;100.00;100460.53;3049510;19;1218;-50
2022/08/06 05:48:09;;;;;;;;;;;;;;;22.36;100.00;100475.50;3051319;19;977;-52
2022/08/06 05:49:18;;;;;;;;;;;;;;;22.31;100.00;100467.03;3052128;19;1015;-57
2022/08/06 05:50:42;;;;;;;;;;;;;;;22.31;100.00;100472.44;3052527;19;1362;-53
2022/08/06 05:52:07;;;;;;;;;;;;;;;22.43;100.00;100471.09;3050972;19;952;-53
2022/08/06 05:53:13;;;;;;;;;;;;;;;22.44;100.00;100459.19;3052307;19;1393;-53
2022/08/06 05:54:23;;;;;;;;;;;;;;;22.45;100.00;100463.63;3051721;19;1132;-55
2022/08/06 05:55:49;;;;;;;;;;;;;;;22.51;100.00;100489.25;3052304;19;866;-55
2022/08/06 05:56:57;;;;;;;;;;;;;;;22.42;100.00;100469.38;3052000;19;1039;-53
2022/08/06 05:58:17;;;;;;;;;;;;;;;22.42;100.00;100469.38;3051728;19;1164;-53
2022/08/06 05:59:21;;;;;;;;;;;;;;;22.52;100.00;100480.09;3049481;19;964;-52
2022/08/06 06:00:41;;;;;;;;;;;;;;;22.52;100.00;100463.75;3049435;19;1171;-54
2022/08/06 06:01:46;;;;;;;;;;;;;;;22.62;100.00;100476.16;3049128;19;1072;-53
2022/08/06 06:02:54;;;;;;;;;;;;;;;22.68;100.00;100476.50;3041508;19;1444;-53
2022/08/06 06:03:56;;;;;;;;;;;;;;;22.50;100.00;100482.97;3043287;19;960;-54
2022/08/06 06:05:03;;;;;;;;;;;;;;;22.47;100.00;100477.88;3041783;19;987;-52